EGPU - Tiree
Distance from station: E 5mi, 14km
Updated: 10/21/2017 11:50am
Light rain, Few clouds
Light rain, Few clouds
 Wind from NW
Wind: NW 8 mph , 13 km/h
Temperature: 52°F , 11°C
Dew Point: 50°F , 10°C
Humidity: 94%
Barometer: 29.26 inHg , 991 hPa
Summary: Light Rain
Clouds: Few Clouds
Visibility: 6 miles , 10 km
Cloud details: Few Clouds 2100 ft
2017/10/21 18:50 EGPU 211850Z AUTO 32007KT 9999 -RA FEW021/// 11/10 Q0991